Time,TemperatureF,DewpointF,PressureIn,WindDirection,WindDirectionDegrees,WindSpeedMPH,WindSpeedGustMPH,Humidity,HourlyPrecipIn,Conditions,Clouds,dailyrainin,SoftwareType,DateUTC
2017-04-30 00:00:00,39.1,38.0,30.02,ENE,59,2.0,11.0,94,0.01,,,0.01,weatherlink.com 1.10,2017-04-30 05:00:00,
2017-04-30 00:15:00,39.1,38.0,30.05,ENE,62,0.0,10.0,94,0.02,,,0.02,weatherlink.com 1.10,2017-04-30 05:15:00,
2017-04-30 00:30:00,39.1,38.0,30.07,SE,133,1.0,5.0,94,0.06,,,0.06,weatherlink.com 1.10,2017-04-30 05:30:00,
2017-04-30 00:45:00,39.0,38.0,30.07,East,96,2.0,5.0,94,0.09,,,0.09,weatherlink.com 1.10,2017-04-30 05:45:00,
2017-04-30 01:00:00,39.0,38.0,30.05,East,82,1.0,5.0,95,0.11,,,0.12,weatherlink.com 1.10,2017-04-30 06:00:00,
2017-04-30 01:15:00,39.1,38.0,30.05,NNE,16,3.0,11.0,95,0.10,,,0.13,weatherlink.com 1.10,2017-04-30 06:15:00,
2017-04-30 01:30:00,39.3,38.0,30.03,NNE,21,2.0,7.0,95,0.09,,,0.15,weatherlink.com 1.10,2017-04-30 06:30:00,
2017-04-30 01:45:00,39.1,38.0,30.02,East,82,6.0,11.0,95,0.08,,,0.17,weatherlink.com 1.10,2017-04-30 06:45:00,
2017-04-30 02:00:00,39.1,38.0,30.00,NE,36,2.0,10.0,95,0.05,,,0.17,weatherlink.com 1.10,2017-04-30 07:00:00,
2017-04-30 02:15:00,39.2,38.0,30.00,ENE,65,2.0,14.0,96,0.03,,,0.17,weatherlink.com 1.10,2017-04-30 07:15:00,
2017-04-30 02:30:00,39.3,38.0,30.00,NNE,27,7.0,11.0,96,0.02,,,0.17,weatherlink.com 1.10,2017-04-30 07:30:00,
2017-04-30 02:45:00,39.3,38.0,29.98,ENE,77,2.0,13.0,96,0.00,,,0.17,weatherlink.com 1.10,2017-04-30 07:45:00,
2017-04-30 03:00:00,39.4,38.0,29.98,NE,50,2.0,13.0,96,0.00,,,0.17,weatherlink.com 1.10,2017-04-30 08:00:00,
2017-04-30 03:15:00,39.4,38.0,29.98,ENE,63,0.0,10.0,96,0.01,,,0.18,weatherlink.com 1.10,2017-04-30 08:15:00,
2017-04-30 03:30:00,39.4,38.0,29.98,ENE,70,1.0,8.0,96,0.01,,,0.18,weatherlink.com 1.10,2017-04-30 08:30:00,
2017-04-30 03:46:00,39.3,38.0,29.98,North,5,0.0,10.0,96,0.01,,,0.18,weatherlink.com 1.10,2017-04-30 08:46:00,
2017-04-30 04:01:00,39.1,38.0,29.95,North,355,3.0,13.0,96,0.01,,,0.18,weatherlink.com 1.10,2017-04-30 09:01:00,
2017-04-30 04:16:00,39.1,38.0,29.95,NE,50,1.0,11.0,96,0.00,,,0.18,weatherlink.com 1.10,2017-04-30 09:16:00,
2017-04-30 04:31:00,39.1,38.0,29.97,NNW,348,2.0,15.0,96,0.01,,,0.19,weatherlink.com 1.10,2017-04-30 09:31:00,
2017-04-30 04:46:00,39.0,38.0,29.95,NNE,25,2.0,14.0,96,0.01,,,0.19,weatherlink.com 1.10,2017-04-30 09:46:00,
2017-04-30 05:01:00,39.1,38.0,29.95,NE,47,2.0,11.0,96,0.01,,,0.19,weatherlink.com 1.10,2017-04-30 10:01:00,